createdAt,value
2022-09-24T00:00:11.152Z,11.50
2022-09-24T00:02:42.207Z,11.50
2022-09-24T00:05:11.361Z,11.50
2022-09-24T00:07:40.991Z,11.50
2022-09-24T00:10:09.109Z,11.50
2022-09-24T00:12:38.707Z,11.50
2022-09-24T00:15:06.108Z,11.50
2022-09-24T00:17:38.356Z,11.50
2022-09-24T00:20:11.511Z,11.50
2022-09-24T00:22:43.549Z,11.50
2022-09-24T00:31:08.897Z,11.50
2022-09-24T00:33:43.392Z,11.40
2022-09-24T00:36:10.255Z,11.50
2022-09-24T00:38:36.862Z,11.50
2022-09-24T00:41:03.616Z,11.50
2022-09-24T00:43:49.474Z,11.50
2022-09-24T00:46:28.648Z,11.60
2022-09-24T00:49:24.921Z,11.60
2022-09-24T00:51:52.274Z,11.60
2022-09-24T00:54:25.654Z,11.60
2022-09-24T00:56:59.307Z,11.60
2022-09-24T00:59:30.904Z,11.60
2022-09-24T01:01:59.791Z,11.60
2022-09-24T01:04:27.940Z,11.60
2022-09-24T01:06:57.065Z,11.60
2022-09-24T01:09:26.435Z,11.60
2022-09-24T01:12:28.391Z,11.60
2022-09-24T01:15:23.484Z,11.60
2022-09-24T01:18:06.609Z,11.70
2022-09-24T01:20:56.758Z,11.60
2022-09-24T01:23:59.005Z,11.60
2022-09-24T01:26:35.249Z,11.50
2022-09-24T01:29:23.262Z,11.50
2022-09-24T01:32:05.046Z,11.50
2022-09-24T01:34:44.994Z,11.40
2022-09-24T01:37:21.833Z,11.40
2022-09-24T01:39:54.018Z,11.30
2022-09-24T01:42:22.732Z,11.30
2022-09-24T01:44:53.854Z,11.30
2022-09-24T01:47:49.619Z,11.30
2022-09-24T01:50:18.851Z,11.30
2022-09-24T01:52:53.687Z,11.30
2022-09-24T01:55:27.404Z,11.20
2022-09-24T01:58:32.789Z,11.20
2022-09-24T02:01:15.450Z,11.20
2022-09-24T02:03:56.817Z,11.20
2022-09-24T02:06:42.773Z,11.20
2022-09-24T02:09:29.190Z,11.20
2022-09-24T02:12:11.785Z,11.20
2022-09-24T02:15:10.442Z,11.10
2022-09-24T02:17:40.183Z,11.10
2022-09-24T02:20:14.428Z,11.00
2022-09-24T02:22:43.172Z,11.00
2022-09-24T02:25:15.093Z,11.00
2022-09-24T02:27:41.752Z,11.10
2022-09-24T02:30:11.180Z,11.10
2022-09-24T02:32:40.877Z,11.10
2022-09-24T02:35:10.661Z,11.10
2022-09-24T02:37:43.947Z,11.10
2022-09-24T02:40:18.894Z,11.10
2022-09-24T02:42:45.715Z,11.10
2022-09-24T02:45:12.685Z,11.10
2022-09-24T02:47:41.866Z,11.10
2022-09-24T02:50:08.817Z,11.10
2022-09-24T02:52:35.553Z,11.20
2022-09-24T02:55:02.091Z,11.20
2022-09-24T02:57:28.800Z,11.20
2022-09-24T03:00:09.474Z,11.30
2022-09-24T03:02:38.785Z,11.30
2022-09-24T03:05:09.866Z,11.30
2022-09-24T03:07:43.007Z,11.30
2022-09-24T03:10:10.878Z,11.30
2022-09-24T03:12:43.384Z,11.40
2022-09-24T03:15:10.661Z,11.40
2022-09-24T03:17:39.784Z,11.40
2022-09-24T03:20:07.094Z,11.50
2022-09-24T03:22:33.686Z,11.50
2022-09-24T03:25:01.799Z,11.50
2022-09-24T03:27:28.633Z,11.40
2022-09-24T03:30:29.211Z,11.30
2022-09-24T03:32:58.901Z,11.40
2022-09-24T03:35:25.554Z,11.20
2022-09-24T03:37:52.134Z,11.20
2022-09-24T03:40:21.871Z,11.20
2022-09-24T03:42:48.495Z,11.10
2022-09-24T03:45:15.123Z,11.10
2022-09-24T03:47:42.467Z,11.00
2022-09-24T03:50:11.405Z,11.00
2022-09-24T03:52:38.759Z,11.00
2022-09-24T04:07:17.579Z,11.20
2022-09-24T04:09:44.247Z,11.20
2022-09-24T04:12:15.655Z,11.30
2022-09-24T04:14:45.122Z,11.30
2022-09-24T04:17:37.009Z,11.30
2022-09-24T04:20:12.350Z,11.20
2022-09-24T04:22:41.232Z,11.20
2022-09-24T04:25:14.742Z,11.20
2022-09-24T04:27:49.348Z,11.20
2022-09-24T04:30:18.744Z,11.10
2022-09-24T04:32:45.567Z,11.10
2022-09-24T04:35:15.092Z,11.10
2022-09-24T04:37:44.565Z,11.00
2022-09-24T04:40:12.310Z,11.00
2022-09-24T04:42:39.864Z,11.00
2022-09-24T04:45:18.537Z,11.00
2022-09-24T04:47:52.808Z,10.90
2022-09-24T04:50:22.889Z,10.90
2022-09-24T04:52:55.551Z,10.90
2022-09-24T04:55:23.281Z,10.90
2022-09-24T04:57:51.100Z,10.90
2022-09-24T05:00:27.067Z,10.90
2022-09-24T05:02:58.876Z,10.90
2022-09-24T05:05:26.229Z,10.90
2022-09-24T05:07:56.752Z,10.90
2022-09-24T05:10:30.912Z,10.90
2022-09-24T05:13:00.466Z,11.00
2022-09-24T05:15:31.154Z,11.00
2022-09-24T05:18:01.372Z,11.00
2022-09-24T05:20:31.534Z,11.00
2022-09-24T05:22:58.161Z,11.00
2022-09-24T05:25:24.836Z,11.00
2022-09-24T05:27:55.031Z,11.00
2022-09-24T05:30:24.222Z,11.00
2022-09-24T05:32:59.168Z,11.00
2022-09-24T05:35:26.167Z,10.90
2022-09-24T05:37:52.779Z,11.00
2022-09-24T05:40:40.633Z,11.00
2022-09-24T05:43:10.126Z,11.00
2022-09-24T05:45:38.928Z,11.00
2022-09-24T05:48:07.914Z,11.00
2022-09-24T05:50:41.789Z,11.00
2022-09-24T05:53:13.446Z,11.10
2022-09-24T05:55:47.079Z,11.10
2022-09-24T05:58:21.436Z,11.10
2022-09-24T06:00:48.465Z,11.10
2022-09-24T06:03:38.426Z,11.10
2022-09-24T06:06:11.870Z,11.20
2022-09-24T06:08:38.479Z,11.20
2022-09-24T06:11:07.719Z,11.20
2022-09-24T06:13:34.980Z,11.20
2022-09-24T06:16:08.801Z,11.20
2022-09-24T06:18:43.505Z,11.20
2022-09-24T06:21:12.530Z,11.30
2022-09-24T06:23:39.908Z,11.30
2022-09-24T06:26:13.546Z,11.30
2022-09-24T06:28:43.457Z,11.30
2022-09-24T06:31:11.685Z,11.30
2022-09-24T06:33:39.696Z,11.30
2022-09-24T06:36:12.842Z,11.30
2022-09-24T06:38:40.499Z,11.40
2022-09-24T06:41:07.310Z,11.40
2022-09-24T06:43:37.204Z,11.50
2022-09-24T06:46:04.199Z,11.60
2022-09-24T06:48:33.597Z,11.70
2022-09-24T06:51:00.277Z,11.80
2022-09-24T06:53:37.702Z,11.80
2022-09-24T06:56:04.784Z,11.90
2022-09-24T06:58:31.394Z,11.90
2022-09-24T07:01:01.721Z,11.90
2022-09-24T07:03:31.015Z,12.00
2022-09-24T07:06:03.881Z,12.10
2022-09-24T07:08:31.334Z,12.10
2022-09-24T07:10:59.429Z,12.10
2022-09-24T07:13:28.322Z,12.20
2022-09-24T07:16:00.746Z,12.20
2022-09-24T07:18:27.361Z,12.20
2022-09-24T07:20:59.114Z,12.30
2022-09-24T07:23:30.534Z,12.30
2022-09-24T07:25:57.417Z,12.30
2022-09-24T07:28:26.232Z,12.40
2022-09-24T07:31:03.573Z,12.40
2022-09-24T07:33:34.857Z,12.50
2022-09-24T07:36:06.429Z,12.50
2022-09-24T07:38:38.742Z,12.60
2022-09-24T07:41:07.356Z,12.60
2022-09-24T07:43:36.478Z,12.70
2022-09-24T07:46:04.239Z,12.70
2022-09-24T07:48:31.584Z,12.80
2022-09-24T07:50:58.142Z,12.90
2022-09-24T07:53:24.781Z,12.90
2022-09-24T07:55:51.946Z,13.00
2022-09-24T07:58:21.196Z,13.10
2022-09-24T08:00:47.817Z,13.10
2022-09-24T08:03:14.649Z,13.10
2022-09-24T08:05:45.358Z,13.10
2022-09-24T08:08:14.646Z,13.20
2022-09-24T08:10:42.291Z,13.30
2022-09-24T08:13:11.233Z,13.40
2022-09-24T08:15:40.243Z,13.40
2022-09-24T08:18:07.586Z,13.50
2022-09-24T08:20:36.152Z,13.50
2022-09-24T08:23:07.046Z,13.60
2022-09-24T08:25:40.718Z,13.70
2022-09-24T08:28:12.024Z,13.70
2022-09-24T08:30:41.117Z,13.80
2022-09-24T08:33:08.451Z,13.80
2022-09-24T08:35:41.776Z,13.80
2022-09-24T08:38:10.854Z,13.80
2022-09-24T08:40:43.388Z,13.80
2022-09-24T08:43:24.609Z,13.80
2022-09-24T08:46:18.065Z,13.90
2022-09-24T08:48:51.708Z,14.00
2022-09-24T08:51:21.863Z,14.10
2022-09-24T08:54:18.640Z,14.20
2022-09-24T08:56:51.000Z,14.40
2022-09-24T08:59:36.015Z,14.40
2022-09-24T09:02:21.531Z,14.50
2022-09-24T09:05:09.368Z,14.60
2022-09-24T09:07:59.422Z,14.60
2022-09-24T09:10:38.833Z,14.70
2022-09-24T09:13:38.290Z,14.70
2022-09-24T09:16:15.606Z,14.80
2022-09-24T09:18:46.364Z,14.90
2022-09-24T09:21:17.308Z,14.90
2022-09-24T09:23:49.143Z,14.90
2022-09-24T09:26:19.910Z,15.00
2022-09-24T09:28:47.874Z,14.90
2022-09-24T09:31:51.309Z,14.80
2022-09-24T09:40:07.114Z,14.80
2022-09-24T09:42:38.108Z,15.00
2022-09-24T09:53:57.227Z,15.30
2022-09-24T09:56:48.053Z,15.40
2022-09-24T09:59:29.720Z,15.50
2022-09-24T10:01:56.955Z,15.60
2022-09-24T10:04:36.547Z,15.70
2022-09-24T10:07:07.563Z,15.80
2022-09-24T10:09:38.806Z,16.00
2022-09-24T10:12:08.238Z,16.10
2022-09-24T10:14:35.647Z,16.20
2022-09-24T10:17:07.401Z,16.30
2022-09-24T10:19:36.002Z,16.30
2022-09-24T10:22:38.738Z,16.30
2022-09-24T10:25:05.856Z,16.30
2022-09-24T10:27:35.721Z,16.20
2022-09-24T10:30:36.539Z,16.10
2022-09-24T10:33:08.074Z,16.10
2022-09-24T10:35:37.869Z,16.10
2022-09-24T10:38:24.501Z,16.10
2022-09-24T10:40:53.691Z,16.10
2022-09-24T10:43:25.723Z,16.20
2022-09-24T10:45:56.721Z,16.20
2022-09-24T10:48:49.853Z,16.30
2022-09-24T10:51:18.792Z,16.30
2022-09-24T10:53:56.996Z,16.30
2022-09-24T10:56:36.636Z,16.30
2022-09-24T10:59:50.578Z,16.40
2022-09-24T11:02:41.812Z,16.50
2022-09-24T11:05:23.623Z,16.60
2022-09-24T11:08:25.550Z,16.80
2022-09-24T11:11:21.216Z,17.00
2022-09-24T11:14:21.635Z,17.30
2022-09-24T11:17:20.495Z,17.30
2022-09-24T11:19:53.429Z,17.30
2022-09-24T11:22:39.608Z,17.40
2022-09-24T11:25:17.566Z,17.50
2022-09-24T11:27:55.963Z,17.70
2022-09-24T11:30:38.470Z,17.70
2022-09-24T11:33:11.321Z,17.70
2022-09-24T11:36:17.700Z,17.90
2022-09-24T11:38:50.554Z,18.00
2022-09-24T11:41:43.281Z,17.90
2022-09-24T11:44:54.434Z,17.90
2022-09-24T11:47:55.146Z,18.00
2022-09-24T11:50:41.453Z,18.20
2022-09-24T11:53:22.659Z,18.30
2022-09-24T11:56:00.833Z,18.40
2022-09-24T11:58:38.869Z,18.40
2022-09-24T12:01:14.076Z,18.40
2022-09-24T12:04:10.223Z,18.40
2022-09-24T12:07:01.470Z,18.40
2022-09-24T12:09:45.961Z,18.50
2022-09-24T12:12:16.381Z,18.70
2022-09-24T12:15:02.078Z,18.80
2022-09-24T12:17:36.273Z,18.90
2022-09-24T12:20:19.664Z,18.90
2022-09-24T12:22:49.883Z,18.90
2022-09-24T12:25:41.774Z,18.90
2022-09-24T12:31:50.715Z,18.80
2022-09-24T12:34:31.880Z,18.80
2022-09-24T12:37:17.715Z,18.70
2022-09-24T12:40:04.570Z,18.70
2022-09-24T12:42:44.190Z,18.70
2022-09-24T12:51:35.029Z,18.80
2022-09-24T12:54:08.719Z,18.80
2022-09-24T12:56:39.096Z,18.80
2022-09-24T12:59:05.828Z,18.80
2022-09-24T13:02:15.556Z,18.80
2022-09-24T13:05:17.848Z,18.80
2022-09-24T13:07:54.600Z,18.90
2022-09-24T13:10:33.785Z,19.10
2022-09-24T13:13:01.381Z,19.20
2022-09-24T13:15:34.468Z,19.30
2022-09-24T13:18:08.261Z,19.50
2022-09-24T13:20:40.668Z,19.70
2022-09-24T13:23:28.939Z,19.80
2022-09-24T13:25:57.967Z,20.10
2022-09-24T13:28:37.782Z,20.40
2022-09-24T13:31:20.629Z,20.60
2022-09-24T13:33:57.160Z,20.30
2022-09-24T13:36:33.749Z,20.30
2022-09-24T13:39:25.413Z,20.30
2022-09-24T13:42:23.285Z,20.30
2022-09-24T13:44:59.868Z,20.10
2022-09-24T13:47:42.784Z,20.00
2022-09-24T13:50:33.372Z,20.00
2022-09-24T13:53:09.445Z,20.20
2022-09-24T13:55:46.695Z,20.40
2022-09-24T13:58:29.630Z,20.70
2022-09-24T14:00:59.499Z,20.80
2022-09-24T14:03:35.024Z,20.70
2022-09-24T14:06:09.605Z,20.60
2022-09-24T14:08:39.241Z,20.40
2022-09-24T14:11:20.922Z,20.20
2022-09-24T14:13:48.048Z,20.00
2022-09-24T14:16:18.200Z,19.90
2022-09-24T14:18:45.631Z,19.80
2022-09-24T14:21:34.058Z,19.70
2022-09-24T14:24:06.745Z,19.60
2022-09-24T14:26:41.126Z,19.60
2022-09-24T14:29:34.039Z,19.50
2022-09-24T14:32:03.971Z,19.50
2022-09-24T14:34:39.820Z,19.50
2022-09-24T14:37:30.584Z,19.40
2022-09-24T14:40:06.163Z,19.50
2022-09-24T14:42:40.894Z,19.40
2022-09-24T14:45:10.075Z,19.30
2022-09-24T14:47:37.142Z,19.30
2022-09-24T14:50:05.282Z,19.20
2022-09-24T14:52:36.897Z,19.10
2022-09-24T14:55:13.706Z,19.00
2022-09-24T14:57:47.432Z,19.00
2022-09-24T15:04:21.991Z,19.00
2022-09-24T15:06:48.705Z,18.90
2022-09-24T15:09:27.303Z,18.80
2022-09-24T15:12:08.334Z,18.80
2022-09-24T15:14:36.005Z,18.80
2022-09-24T15:17:22.636Z,18.80
2022-09-24T15:19:53.675Z,18.70
2022-09-24T15:22:25.985Z,18.70
2022-09-24T15:24:58.810Z,18.70
2022-09-24T15:27:29.781Z,18.70
2022-09-24T15:30:01.937Z,18.70
2022-09-24T15:32:35.246Z,18.70
2022-09-24T15:35:08.713Z,18.60
2022-09-24T15:37:38.581Z,18.60
2022-09-24T15:40:19.839Z,18.60
2022-09-24T15:42:46.544Z,18.60
2022-09-24T15:45:26.234Z,18.60
2022-09-24T15:47:59.113Z,18.60
2022-09-24T15:50:26.491Z,18.60
2022-09-24T15:52:59.725Z,18.60
2022-09-24T15:55:28.156Z,18.60
2022-09-24T15:57:57.820Z,18.50
2022-09-24T16:00:25.097Z,18.60
2022-09-24T16:02:56.651Z,18.50
2022-09-24T16:05:24.715Z,18.50
2022-09-24T16:07:51.628Z,18.50
2022-09-24T16:10:21.041Z,18.40
2022-09-24T16:12:47.630Z,18.40
2022-09-24T16:15:16.805Z,18.40
2022-09-24T16:17:43.847Z,18.30
2022-09-24T16:20:12.835Z,18.30
2022-09-24T16:22:39.424Z,18.30
2022-09-24T16:25:14.131Z,18.30
2022-09-24T16:27:40.774Z,18.30
2022-09-24T16:30:11.430Z,18.20
2022-09-24T16:32:55.841Z,18.20
2022-09-24T16:35:25.956Z,18.10
2022-09-24T16:37:57.307Z,18.10
2022-09-24T16:40:24.615Z,18.00
2022-09-24T16:42:56.160Z,18.00
2022-09-24T16:45:23.032Z,18.00
2022-09-24T16:47:52.274Z,17.90
2022-09-24T16:50:19.521Z,17.90
2022-09-24T16:52:49.228Z,17.90
2022-09-24T16:55:17.164Z,17.80
2022-09-24T16:57:43.951Z,17.80
2022-09-24T17:00:12.318Z,17.80
2022-09-24T17:02:39.816Z,17.80
2022-09-24T17:05:15.980Z,17.80
2022-09-24T17:07:44.987Z,17.70
2022-09-24T17:10:17.576Z,17.70
2022-09-24T17:13:10.510Z,17.70
2022-09-24T17:15:37.212Z,17.70
2022-09-24T17:18:05.897Z,17.60
2022-09-24T17:20:32.739Z,17.60
2022-09-24T17:22:59.356Z,17.50
2022-09-24T17:25:30.169Z,17.50
2022-09-24T17:27:56.742Z,17.40
2022-09-24T17:30:23.503Z,17.40
2022-09-24T17:32:50.070Z,17.30
2022-09-24T17:35:24.114Z,17.20
2022-09-24T17:37:50.750Z,17.20
2022-09-24T17:40:21.462Z,17.20
2022-09-24T17:43:08.595Z,17.10
2022-09-24T17:45:36.505Z,17.10
2022-09-24T17:48:05.194Z,17.00
2022-09-24T17:50:31.991Z,17.00
2022-09-24T17:53:01.224Z,16.90
2022-09-24T17:55:32.579Z,16.90
2022-09-24T17:57:59.285Z,16.80
2022-09-24T18:00:28.257Z,16.80
2022-09-24T18:03:04.927Z,16.80
2022-09-24T18:05:34.388Z,16.70
2022-09-24T18:08:06.144Z,16.70
2022-09-24T18:10:35.232Z,16.60
2022-09-24T18:13:04.285Z,16.50
2022-09-24T18:15:35.827Z,16.50
2022-09-24T18:18:05.232Z,16.40
2022-09-24T18:20:35.710Z,16.40
2022-09-24T18:23:34.079Z,16.30
2022-09-24T18:26:11.013Z,16.10
2022-09-24T18:28:42.276Z,16.00
2022-09-24T18:31:10.112Z,16.00
2022-09-24T18:33:39.319Z,16.00
2022-09-24T18:36:08.307Z,16.00
2022-09-24T18:38:36.166Z,15.90
2022-09-24T18:41:54.917Z,15.70
2022-09-24T18:44:23.469Z,15.50
2022-09-24T18:46:51.001Z,15.40
2022-09-24T18:49:21.042Z,15.40
2022-09-24T18:51:48.280Z,15.40
2022-09-24T18:54:16.184Z,15.40
2022-09-24T18:56:43.033Z,15.40
2022-09-24T18:59:15.617Z,15.30
2022-09-24T19:01:46.442Z,15.30
2022-09-24T19:04:14.494Z,15.30
2022-09-24T19:06:43.719Z,15.10
2022-09-24T19:09:14.387Z,15.10
2022-09-24T19:11:42.551Z,15.00
2022-09-24T19:14:12.016Z,14.90
2022-09-24T19:16:39.421Z,14.80
2022-09-24T19:19:06.705Z,14.80
2022-09-24T19:21:34.384Z,14.70
2022-09-24T19:24:01.428Z,14.70
2022-09-24T19:26:34.681Z,14.60
2022-09-24T19:29:03.597Z,14.50
2022-09-24T19:31:37.362Z,14.50
2022-09-24T19:34:11.550Z,14.40
2022-09-24T19:36:43.393Z,14.40
2022-09-24T19:39:13.466Z,14.40
2022-09-24T19:42:42.029Z,14.40
2022-09-24T19:45:09.547Z,14.40
2022-09-24T19:47:40.010Z,14.50
2022-09-24T19:50:12.590Z,14.50
2022-09-24T19:52:48.003Z,14.50
2022-09-24T20:01:02.605Z,14.60
2022-09-24T20:03:35.188Z,14.60
2022-09-24T20:06:18.650Z,14.50
2022-09-24T20:08:48.738Z,14.50
2022-09-24T20:11:19.610Z,14.50
2022-09-24T20:13:47.586Z,14.50
2022-09-24T20:16:21.340Z,14.50
2022-09-24T20:18:50.003Z,14.50
2022-09-24T20:21:18.107Z,14.50
2022-09-24T20:24:18.909Z,14.50
2022-09-24T20:27:07.487Z,14.50
2022-09-24T20:29:37.342Z,14.50
2022-09-24T20:32:04.327Z,14.50
2022-09-24T20:34:34.897Z,14.50
2022-09-24T20:37:03.676Z,14.40
2022-09-24T20:39:31.553Z,14.50
2022-09-24T20:42:03.038Z,14.50
2022-09-24T20:44:32.733Z,14.40
2022-09-24T20:46:59.782Z,14.40
2022-09-24T20:49:34.048Z,14.40
2022-09-24T20:52:07.590Z,14.40
2022-09-24T20:54:35.104Z,14.30
2022-09-24T20:57:01.725Z,14.30
2022-09-24T20:59:29.955Z,14.40
2022-09-24T21:01:56.667Z,14.40
2022-09-24T21:04:23.758Z,14.40
2022-09-24T21:06:55.077Z,14.40
2022-09-24T21:09:25.162Z,14.40
2022-09-24T21:11:52.372Z,14.40
2022-09-24T21:14:19.434Z,14.40
2022-09-24T21:16:48.870Z,14.30
2022-09-24T21:19:16.304Z,14.30
2022-09-24T21:21:42.889Z,14.30
2022-09-24T21:24:13.657Z,14.20
2022-09-24T21:26:46.513Z,14.20
2022-09-24T21:29:19.934Z,14.20
2022-09-24T21:31:51.240Z,14.20
2022-09-24T21:34:22.328Z,14.10
2022-09-24T21:36:49.174Z,14.10
2022-09-24T21:39:16.783Z,14.10
2022-09-24T21:41:54.357Z,14.10
2022-09-24T21:44:21.092Z,14.00
2022-09-24T21:46:51.382Z,14.00
2022-09-24T21:49:22.921Z,14.00
2022-09-24T21:51:53.055Z,14.00
2022-09-24T21:54:23.073Z,14.10
2022-09-24T21:56:53.472Z,14.10
2022-09-24T21:59:38.641Z,14.10
2022-09-24T22:02:09.327Z,14.10
2022-09-24T22:04:38.530Z,14.10
2022-09-24T22:07:05.113Z,14.10
2022-09-24T22:09:33.043Z,14.10
2022-09-24T22:12:03.763Z,14.10
2022-09-24T22:14:33.807Z,14.00
2022-09-24T22:17:03.683Z,14.00
2022-09-24T22:22:56.144Z,14.00
2022-09-24T22:25:23.450Z,14.00
2022-09-24T22:27:52.534Z,14.00
2022-09-24T22:30:19.778Z,14.10
2022-09-24T22:32:48.261Z,14.00
2022-09-24T22:38:06.140Z,14.00
2022-09-24T22:40:40.871Z,14.00
2022-09-24T22:43:10.426Z,14.00
2022-09-24T22:45:37.514Z,14.00
2022-09-24T22:48:04.354Z,13.90
2022-09-24T22:50:33.739Z,13.90
2022-09-24T22:53:03.140Z,13.90
2022-09-24T22:55:33.273Z,13.90
2022-09-24T22:57:59.831Z,13.90
2022-09-24T23:00:29.723Z,13.90
2022-09-24T23:02:59.273Z,13.90
2022-09-24T23:05:27.379Z,14.00
2022-09-24T23:08:20.749Z,14.00
2022-09-24T23:10:47.358Z,14.00
2022-09-24T23:13:13.919Z,14.00
2022-09-24T23:15:40.643Z,14.00
2022-09-24T23:18:13.097Z,14.00
2022-09-24T23:20:39.647Z,14.00
2022-09-24T23:23:06.226Z,14.00
2022-09-24T23:25:36.567Z,14.00
2022-09-24T23:28:05.749Z,13.90
2022-09-24T23:30:32.375Z,13.90
2022-09-24T23:32:58.981Z,13.90
2022-09-24T23:35:28.022Z,13.90
2022-09-24T23:37:54.787Z,13.90
2022-09-24T23:40:24.006Z,13.90
2022-09-24T23:42:53.381Z,13.90
2022-09-24T23:45:19.987Z,13.90
2022-09-24T23:47:49.050Z,13.90
2022-09-24T23:50:15.772Z,13.90
2022-09-24T23:52:47.623Z,13.80
2022-09-24T23:55:15.703Z,13.80
2022-09-24T23:57:42.371Z,13.80
